Time;durP1;ratioP1;P1;durP2;ratioP2;P2;SDS_P1;SDS_P2;PMS_P1;PMS_P2;Temp;Humidity;BMP_temperature;BMP_pressure;BME280_temperature;BME280_humidity;BME280_pressure;Samples;Min_cycle;Max_cycle;Signal;HPM_P1;HPM_P2
2022/01/20 00:02:41;;;;;;;51.45;24.33;;;-1.40;59.30;;;;;;5025305;28;20404;-71
2022/01/20 00:05:30;;;;;;;46.72;23.80;;;-1.50;59.20;;;;;;5037532;28;20502;-72
2022/01/20 00:27:02;;;;;;;57.97;24.13;;;-1.60;58.90;;;;;;5013066;28;20091;-71
2022/01/20 00:29:31;;;;;;;62.83;30.25;;;-1.60;59.60;;;;;;5012998;28;20113;-71
2022/01/20 00:32:18;;;;;;;90.32;37.58;;;-1.60;59.70;;;;;;5012978;28;20072;-72
2022/01/20 00:37:30;;;;;;;91.80;37.80;;;-1.60;59.80;;;;;;5014017;28;20033;-71
2022/01/20 00:39:57;;;;;;;90.00;37.70;;;-1.60;59.70;;;;;;5042567;28;20042;-71
2022/01/20 00:42:24;;;;;;;74.20;33.95;;;-1.60;59.80;;;;;;5045654;28;20029;-72
2022/01/20 00:44:51;;;;;;;91.65;41.13;;;-1.50;59.90;;;;;;5044924;28;20494;-70
2022/01/20 00:47:18;;;;;;;111.03;47.20;;;-1.60;60.00;;;;;;5014053;28;20066;-71
2022/01/20 00:49:45;;;;;;;97.50;39.95;;;-1.60;60.10;;;;;;5027630;28;20554;-71
2022/01/20 00:52:11;;;;;;;100.47;40.90;;;-1.50;60.40;;;;;;5011298;28;20247;-72
2022/01/20 00:54:38;;;;;;;95.57;40.42;;;-1.50;60.40;;;;;;5013156;28;20391;-73
2022/01/20 00:57:05;;;;;;;73.38;35.88;;;-1.50;59.70;;;;;;5013302;28;20452;-70
2022/01/20 00:59:32;;;;;;;68.50;31.00;;;-1.40;60.30;;;;;;5012667;28;20045;-70
2022/01/20 01:02:02;;;;;;;70.93;31.75;;;-1.50;60.40;;;;;;5027896;28;20041;-72
2022/01/20 01:04:28;;;;;;;74.07;34.05;;;-1.50;60.40;;;;;;5027127;28;20483;-71
2022/01/20 01:09:41;;;;;;;85.30;34.67;;;-1.40;60.60;;;;;;5011292;28;20419;-72
2022/01/20 01:12:14;;;;;;;84.93;35.05;;;-1.40;60.00;;;;;;5028153;28;20109;-71
2022/01/20 01:14:46;;;;;;;72.95;30.80;;;-1.40;60.50;;;;;;5012421;28;20429;-73
2022/01/20 01:22:24;;;;;;;55.45;27.10;;;-1.30;60.70;;;;;;5014764;28;20079;-73
2022/01/20 01:24:54;;;;;;;49.85;25.25;;;-1.20;60.70;;;;;;5023769;28;20045;-73
2022/01/20 01:27:23;;;;;;;57.70;26.45;;;-1.30;60.70;;;;;;5011076;28;20034;-72
2022/01/20 01:32:48;;;;;;;46.05;22.35;;;-1.30;60.90;;;;;;5032261;28;20060;-71
2022/01/20 01:35:17;;;;;;;47.75;21.70;;;-1.30;60.90;;;;;;5022711;28;20206;-73
2022/01/20 01:40:26;;;;;;;40.88;17.52;;;-1.30;61.00;;;;;;5025578;28;20041;-71
2022/01/20 01:42:53;;;;;;;36.95;17.25;;;-1.20;60.90;;;;;;5015125;28;20060;-73
2022/01/20 01:45:40;;;;;;;34.55;17.35;;;-1.30;60.90;;;;;;5022787;28;20117;-71
2022/01/20 01:48:07;;;;;;;32.40;16.00;;;-1.30;61.20;;;;;;5026926;28;20453;-72
2022/01/20 01:50:34;;;;;;;33.20;15.20;;;-1.30;61.30;;;;;;5011406;28;20046;-71
2022/01/20 01:53:05;;;;;;;39.22;16.83;;;-1.30;60.80;;;;;;5010141;28;20048;-71
2022/01/20 01:55:34;;;;;;;44.35;18.85;;;-1.30;61.40;;;;;;5028804;28;20049;-72
2022/01/20 01:58:00;;;;;;;47.78;21.08;;;-1.30;61.50;;;;;;5009187;28;20117;-72
2022/01/20 02:00:26;;;;;;;;;;;-1.20;61.60;;;;;;5027050;28;20037;-73
2022/01/20 02:02:54;;;;;;;49.13;20.48;;;-1.20;61.20;;;;;;5028833;28;20479;-71
2022/01/20 02:05:21;;;;;;;44.75;20.35;;;-1.30;60.60;;;;;;5026717;28;20041;-73
2022/01/20 02:18:49;;;;;;;42.38;19.27;;;-1.20;61.70;;;;;;5022777;28;20068;-71
2022/01/20 02:21:15;;;;;;;45.05;20.77;;;-1.20;61.80;;;;;;5012043;28;20128;-70
2022/01/20 02:23:42;;;;;;;50.67;22.65;;;-1.30;61.00;;;;;;5026551;28;20054;-71
2022/01/20 02:26:09;;;;;;;52.03;20.52;;;-1.20;61.70;;;;;;5010364;28;20088;-70
2022/01/20 02:28:35;;;;;;;48.90;20.92;;;-1.20;61.60;;;;;;5010259;28;20038;-72
2022/01/20 02:31:02;;;;;;;48.92;22.55;;;-1.30;61.00;;;;;;5010193;28;20041;-73
2022/01/20 02:33:30;;;;;;;47.55;19.35;;;-1.30;61.70;;;;;;5034845;28;20165;-70
2022/01/20 02:36:18;;;;;;;41.28;18.05;;;-1.30;61.20;;;;;;5018350;28;20025;-73
2022/01/20 02:38:55;;;;;;;50.17;22.90;;;-1.30;62.10;;;;;;5027409;28;20049;-71
2022/01/20 02:46:51;;;;;;;43.80;23.73;;;-1.30;61.80;;;;;;5023055;28;20068;-70
2022/01/20 02:49:18;;;;;;;51.33;22.45;;;-1.20;61.80;;;;;;5025886;28;20103;-73
2022/01/20 02:52:04;;;;;;;46.22;23.52;;;-1.30;61.70;;;;;;5010897;28;20089;-70
2022/01/20 02:54:30;;;;;;;54.45;25.13;;;-1.20;61.70;;;;;;5009807;28;20253;-73
2022/01/20 02:56:56;;;;;;;55.40;23.63;;;-1.20;61.70;;;;;;5012191;28;20034;-72
2022/01/20 02:59:22;;;;;;;66.32;27.60;;;-1.20;61.50;;;;;;5028599;28;20052;-73
2022/01/20 03:01:48;;;;;;;55.67;25.27;;;-1.20;61.50;;;;;;5014522;28;20038;-73
2022/01/20 03:04:15;;;;;;;54.83;23.88;;;-1.20;62.60;;;;;;5014548;28;20069;-72
2022/01/20 03:06:41;;;;;;;54.17;23.52;;;-1.20;61.10;;;;;;5014200;28;20042;-71
2022/01/20 03:09:08;;;;;;;48.28;22.27;;;-1.20;61.40;;;;;;5030769;28;20041;-70
2022/01/20 03:11:34;;;;;;;57.95;23.15;;;-1.10;61.20;;;;;;5030582;28;20084;-71
2022/01/20 03:14:00;;;;;;;;;;;-1.10;61.30;;;;;;5032322;28;20037;-71
2022/01/20 03:16:27;;;;;;;51.03;21.87;;;-1.20;61.10;;;;;;5028239;28;20416;-71
2022/01/20 03:18:53;;;;;;;40.08;19.75;;;-1.20;61.50;;;;;;5014542;28;20099;-72
2022/01/20 03:21:19;;;;;;;41.83;19.10;;;-1.30;61.90;;;;;;5014433;28;20025;-71
2022/01/20 03:23:45;;;;;;;41.17;18.38;;;-1.40;62.10;;;;;;5032069;28;20644;-71
2022/01/20 03:26:11;;;;;;;35.58;17.48;;;-1.30;62.10;;;;;;5029321;28;20113;-73
2022/01/20 03:28:37;;;;;;;40.95;20.17;;;-1.30;62.10;;;;;;5028313;28;20036;-71
2022/01/20 03:31:03;;;;;;;40.55;17.80;;;-1.30;62.00;;;;;;5013902;28;20034;-71
2022/01/20 03:33:29;;;;;;;;;;;-1.40;62.00;;;;;;5028452;28;20057;-71
2022/01/20 03:35:55;;;;;;;27.48;12.32;;;-1.40;61.80;;;;;;5014575;28;19913;-73
2022/01/20 03:38:22;;;;;;;28.13;12.60;;;-1.40;61.90;;;;;;5013976;28;20425;-71
2022/01/20 03:40:49;;;;;;;20.90;10.05;;;-1.40;62.10;;;;;;5027762;28;20084;-73
2022/01/20 03:43:16;;;;;;;20.20;9.93;;;-1.50;62.30;;;;;;5013884;28;20079;-71
2022/01/20 03:45:47;;;;;;;23.42;10.20;;;-1.50;61.80;;;;;;5030562;28;20038;-71
2022/01/20 03:48:13;;;;;;;22.35;10.60;;;-1.50;62.70;;;;;;5028219;28;20116;-73
2022/01/20 03:53:24;;;;;;;41.42;18.73;;;-1.50;62.90;;;;;;5013923;28;20049;-72
2022/01/20 03:55:50;;;;;;;48.80;17.50;;;-1.50;62.20;;;;;;5018460;28;20030;-71
2022/01/20 03:58:16;;;;;;;34.45;17.02;;;-1.50;62.80;;;;;;5023729;28;20045;-71
2022/01/20 04:00:44;;;;;;;39.13;16.83;;;-1.50;62.80;;;;;;5012324;28;20038;-73
2022/01/20 04:03:30;;;;;;;33.35;16.20;;;-1.50;62.70;;;;;;5017740;28;20048;-73
2022/01/20 04:08:44;;;;;;;47.03;22.10;;;-1.50;63.00;;;;;;5012424;28;20044;-71
2022/01/20 04:11:29;;;;;;;56.92;26.80;;;-1.60;62.90;;;;;;5013166;28;20045;-73
2022/01/20 04:13:57;;;;;;;49.63;22.25;;;-1.60;63.00;;;;;;5020676;28;20054;-73
2022/01/20 04:19:26;;;;;;;31.83;16.63;;;-1.60;62.80;;;;;;5012767;28;20145;-73
2022/01/20 04:21:52;;;;;;;28.75;13.35;;;-1.70;62.80;;;;;;5012092;28;20041;-73
2022/01/20 04:24:19;;;;;;;36.35;15.38;;;-1.70;62.90;;;;;;5017381;28;20030;-72
2022/01/20 04:26:46;;;;;;;33.75;14.50;;;-1.70;62.30;;;;;;5013362;28;20032;-72
2022/01/20 04:29:16;;;;;;;23.25;12.55;;;-1.70;62.80;;;;;;5011710;28;20048;-74
2022/01/20 04:31:43;;;;;;;19.08;8.18;;;-1.70;62.90;;;;;;5011091;28;20494;-73
2022/01/20 04:34:11;;;;;;;15.00;7.32;;;-1.70;63.10;;;;;;5028421;28;20041;-71
2022/01/20 04:36:41;;;;;;;14.27;6.47;;;-1.70;63.10;;;;;;5027159;28;20037;-71
2022/01/20 04:39:13;;;;;;;13.52;5.60;;;-1.70;63.20;;;;;;5012551;28;20033;-73
2022/01/20 04:41:39;;;;;;;11.77;5.47;;;-1.60;63.10;;;;;;5012960;28;20033;-73
2022/01/20 04:44:11;;;;;;;;;;;-1.60;63.10;;;;;;5028436;28;20037;-73
2022/01/20 04:46:45;;;;;;;14.82;6.22;;;-1.50;62.90;;;;;;5044126;28;19921;-73
2022/01/20 04:57:25;;;;;;;12.65;6.25;;;-1.50;63.20;;;;;;5012965;28;20068;-73
2022/01/20 04:59:53;;;;;;;15.23;6.35;;;-1.40;63.20;;;;;;5012018;28;20394;-72
2022/01/20 05:02:21;;;;;;;14.18;6.43;;;-1.40;63.20;;;;;;5012456;28;20042;-71
2022/01/20 05:04:47;;;;;;;15.18;6.15;;;-1.40;63.30;;;;;;5009902;28;20048;-72
2022/01/20 05:09:59;;;;;;;20.40;9.65;;;-1.30;62.60;;;;;;5014685;28;20040;-73
2022/01/20 05:12:37;;;;;;;28.23;10.35;;;-1.50;63.10;;;;;;5024020;28;20060;-73
2022/01/20 05:15:03;;;;;;;29.25;12.48;;;-1.50;63.50;;;;;;5028046;28;20095;-73
2022/01/20 05:17:29;;;;;;;32.00;12.70;;;-1.70;63.50;;;;;;4994881;28;20545;-73
2022/01/20 05:19:56;;;;;;;27.73;12.18;;;-1.70;64.00;;;;;;5013287;28;20491;-71
2022/01/20 05:22:22;;;;;;;23.30;11.02;;;-1.70;64.00;;;;;;5010873;28;20029;-71
2022/01/20 05:24:48;;;;;;;26.85;10.23;;;-1.60;64.00;;;;;;5026542;28;20037;-71
2022/01/20 05:27:14;;;;;;;24.65;11.07;;;-1.60;64.00;;;;;;5013120;28;20041;-72
2022/01/20 05:29:40;;;;;;;30.67;14.63;;;-1.60;63.90;;;;;;5012503;28;20046;-73
2022/01/20 05:32:06;;;;;;;30.30;13.98;;;-1.60;64.80;;;;;;5027660;28;20391;-73
2022/01/20 05:34:32;;;;;;;25.13;12.25;;;-1.60;63.20;;;;;;5028133;28;20482;-73
2022/01/20 05:36:58;;;;;;;30.30;13.70;;;-1.60;63.90;;;;;;5026636;28;20037;-73
2022/01/20 05:39:25;;;;;;;31.55;15.05;;;-1.70;64.00;;;;;;5011131;28;20113;-72
2022/01/20 05:41:51;;;;;;;48.00;21.08;;;-1.60;64.00;;;;;;5029632;28;20029;-71
2022/01/20 05:44:17;;;;;;;;;;;-1.70;63.40;;;;;;5011530;28;20046;-71
2022/01/20 05:46:48;;;;;;;79.38;28.98;;;-1.70;64.20;;;;;;5027298;28;19928;-70
2022/01/20 05:49:20;;;;;;;54.13;18.83;;;-1.70;63.90;;;;;;5010356;28;20442;-71
2022/01/20 05:52:07;;;;;;;44.53;17.15;;;-1.70;64.00;;;;;;5026765;28;20522;-73
2022/01/20 05:54:33;;;;;;;19.40;7.00;;;-1.60;64.20;;;;;;5026153;28;20112;-73
2022/01/20 05:56:59;;;;;;;20.42;8.95;;;-1.60;64.50;;;;;;5012144;28;20026;-73
2022/01/20 05:59:25;;;;;;;25.50;11.27;;;-1.60;64.60;;;;;;5010528;28;20056;-73
2022/01/20 06:01:55;;;;;;;15.02;7.40;;;-1.50;64.70;;;;;;5027126;28;20041;-73
2022/01/20 06:04:21;;;;;;;25.02;10.35;;;-1.50;64.70;;;;;;5012839;28;20038;-72
2022/01/20 06:06:47;;;;;;;;;;;-1.40;64.50;;;;;;5009302;28;20405;-71
2022/01/20 06:09:13;;;;;;;18.95;7.32;;;-1.30;64.40;;;;;;5011527;28;19913;-73
2022/01/20 06:11:39;;;;;;;17.85;7.53;;;-1.30;64.20;;;;;;5027038;28;20565;-72
2022/01/20 06:14:05;;;;;;;16.08;7.03;;;-1.20;63.80;;;;;;5011353;28;20029;-73
2022/01/20 06:16:32;;;;;;;19.58;8.77;;;-1.10;63.70;;;;;;5009868;28;20526;-72
2022/01/20 06:18:59;;;;;;;20.75;8.85;;;-1.00;63.50;;;;;;5012472;28;20038;-73
2022/01/20 06:21:25;;;;;;;;;;;-1.00;63.70;;;;;;5009635;28;20037;-70
2022/01/20 06:23:51;;;;;;;30.90;14.82;;;-1.00;63.00;;;;;;5013320;28;20003;-72
2022/01/20 06:26:17;;;;;;;;;;;-0.90;63.00;;;;;;5026520;28;20049;-71
2022/01/20 06:28:43;;;;;;;33.22;14.68;;;-0.90;63.30;;;;;;5025318;28;19921;-71
2022/01/20 06:31:10;;;;;;;25.00;13.73;;;-0.80;63.20;;;;;;5025328;28;20033;-71
2022/01/20 06:33:36;;;;;;;30.05;15.75;;;-0.70;63.20;;;;;;5029168;28;20037;-71
2022/01/20 06:36:03;;;;;;;34.30;16.98;;;-0.70;63.20;;;;;;5031028;28;20079;-73
2022/01/20 06:38:30;;;;;;;31.80;13.95;;;-0.60;62.70;;;;;;5029483;28;20053;-73
2022/01/20 06:40:56;;;;;;;38.78;18.80;;;-0.50;63.40;;;;;;5013404;28;20042;-71
2022/01/20 06:43:22;;;;;;;32.97;16.30;;;-0.40;63.30;;;;;;5013785;28;20033;-73
2022/01/20 06:45:48;;;;;;;35.22;14.77;;;-0.30;63.40;;;;;;5014693;28;20033;-73
2022/01/20 06:48:14;;;;;;;31.60;14.45;;;-0.30;63.50;;;;;;5015687;28;20135;-73
2022/01/20 06:50:41;;;;;;;34.65;14.05;;;-0.20;63.30;;;;;;5029044;28;20076;-71
2022/01/20 06:53:07;;;;;;;28.75;13.27;;;-0.10;63.40;;;;;;5030308;28;20068;-70
2022/01/20 06:55:34;;;;;;;55.22;20.27;;;0.00;63.30;;;;;;5015264;28;20386;-73
2022/01/20 06:58:01;;;;;;;38.78;18.58;;;0.00;63.20;;;;;;5014182;28;20042;-71
2022/01/20 07:00:27;;;;;;;58.75;18.30;;;0.10;63.40;;;;;;5030419;28;20080;-73
2022/01/20 07:02:53;;;;;;;63.00;20.60;;;0.20;63.40;;;;;;5015486;28;20468;-73
2022/01/20 07:05:22;;;;;;;57.72;24.98;;;0.20;63.10;;;;;;5011979;28;20038;-73
2022/01/20 07:07:48;;;;;;;51.83;23.10;;;0.30;63.20;;;;;;5014586;28;20038;-73
2022/01/20 07:10:17;;;;;;;40.67;19.92;;;0.40;62.60;;;;;;5028209;28;20068;-71
2022/01/20 07:12:44;;;;;;;48.83;21.48;;;0.50;63.10;;;;;;5029719;28;20041;-71
2022/01/20 07:15:12;;;;;;;38.40;18.50;;;0.60;63.10;;;;;;5014104;28;20030;-73
2022/01/20 07:17:38;;;;;;;34.47;16.90;;;0.60;63.20;;;;;;5031943;28;20472;-71
2022/01/20 07:20:05;;;;;;;49.53;26.13;;;0.70;63.40;;;;;;5009336;28;20336;-73
2022/01/20 07:22:31;;;;;;;48.80;23.30;;;0.80;63.20;;;;;;5013351;28;20692;-72
2022/01/20 07:24:57;;;;;;;;;;;0.90;63.30;;;;;;5015949;28;20446;-73
2022/01/20 07:27:23;;;;;;;34.20;18.92;;;1.00;64.10;;;;;;5030818;28;19916;-73
2022/01/20 07:29:49;;;;;;;33.88;18.75;;;1.00;63.10;;;;;;5028513;28;20402;-71
2022/01/20 07:32:15;;;;;;;43.63;20.52;;;1.10;63.20;;;;;;5028893;28;20042;-71
2022/01/20 07:34:42;;;;;;;38.65;19.35;;;1.20;63.20;;;;;;5027100;28;20046;-73
2022/01/20 07:37:08;;;;;;;35.20;18.85;;;1.30;63.40;;;;;;5013240;28;20080;-72
2022/01/20 07:39:34;;;;;;;31.63;15.95;;;1.30;63.50;;;;;;5013979;28;20380;-73
2022/01/20 07:42:00;;;;;;;26.50;13.05;;;1.40;63.40;;;;;;5016815;28;20022;-73
2022/01/20 07:44:26;;;;;;;;;;;1.50;63.00;;;;;;5009962;28;20045;-73
2022/01/20 07:46:53;;;;;;;33.17;13.63;;;1.50;63.70;;;;;;5013655;28;19917;-73
2022/01/20 07:49:19;;;;;;;25.75;13.02;;;1.50;64.20;;;;;;5012516;28;20045;-73
2022/01/20 07:51:45;;;;;;;29.25;12.95;;;1.50;64.20;;;;;;5015299;28;20401;-73
2022/01/20 07:54:11;;;;;;;22.80;10.88;;;1.60;64.20;;;;;;5009329;28;20029;-71
2022/01/20 07:56:37;;;;;;;23.10;11.15;;;1.70;64.30;;;;;;5014074;28;20445;-73
2022/01/20 07:59:03;;;;;;;;;;;1.70;64.50;;;;;;5012976;28;20073;-73
2022/01/20 08:01:30;;;;;;;21.60;9.88;;;1.70;64.60;;;;;;5016523;28;19924;-71
2022/01/20 08:03:56;;;;;;;18.90;9.98;;;1.70;64.80;;;;;;5028532;28;20036;-71
2022/01/20 08:06:22;;;;;;;;;;;1.60;65.00;;;;;;5029077;28;20052;-71
2022/01/20 08:08:50;;;;;;;30.50;12.63;;;1.70;65.00;;;;;;5029835;28;19917;-73
2022/01/20 08:11:37;;;;;;;22.20;10.43;;;1.70;65.00;;;;;;5025108;28;20092;-74
2022/01/20 08:14:03;;;;;;;20.65;10.25;;;1.70;65.10;;;;;;5013438;28;20266;-71
2022/01/20 08:16:29;;;;;;;108.25;49.13;;;1.80;64.90;;;;;;5012149;28;20034;-71
2022/01/20 08:18:55;;;;;;;93.20;42.58;;;1.90;64.90;;;;;;5017876;28;20435;-72
2022/01/20 08:21:21;;;;;;;70.63;36.40;;;2.00;64.80;;;;;;5028275;28;20375;-71
2022/01/20 08:23:48;;;;;;;61.80;33.15;;;2.10;64.60;;;;;;5029634;28;20103;-71
2022/01/20 08:26:14;;;;;;;46.05;24.40;;;2.20;65.20;;;;;;5029664;28;20030;-72
2022/01/20 08:28:40;;;;;;;43.17;22.20;;;2.30;64.30;;;;;;5009653;28;20048;-71
2022/01/20 08:31:06;;;;;;;55.42;25.52;;;2.40;64.30;;;;;;5018905;28;20116;-73
2022/01/20 08:33:32;;;;;;;41.42;22.00;;;2.40;64.10;;;;;;5022164;28;20050;-71
2022/01/20 08:35:58;;;;;;;54.47;27.00;;;2.50;64.10;;;;;;5019513;28;20029;-71
2022/01/20 08:38:24;;;;;;;59.00;27.42;;;2.50;64.00;;;;;;5023244;28;20045;-71
2022/01/20 08:40:51;;;;;;;52.92;26.50;;;2.60;63.80;;;;;;5002309;28;20405;-73
2022/01/20 08:43:18;;;;;;;76.22;37.15;;;2.70;63.70;;;;;;5005219;28;20514;-73
2022/01/20 08:45:46;;;;;;;;;;;2.70;64.70;;;;;;5018187;28;20036;-72
2022/01/20 08:48:13;;;;;;;83.90;39.28;;;2.70;63.80;;;;;;5029479;28;19923;-73
2022/01/20 08:50:42;;;;;;;98.72;46.30;;;2.70;63.10;;;;;;5021199;28;20053;-71
2022/01/20 08:53:08;;;;;;;107.88;46.05;;;2.70;63.70;;;;;;5012803;28;20045;-73
2022/01/20 08:55:36;;;;;;;113.28;49.08;;;2.80;63.10;;;;;;5012145;28;20042;-71
2022/01/20 08:58:05;;;;;;;89.95;40.95;;;2.90;63.80;;;;;;5011903;28;20038;-71
2022/01/20 09:00:33;;;;;;;92.07;42.28;;;2.90;63.80;;;;;;5011158;28;20041;-71
2022/01/20 09:03:00;;;;;;;72.85;37.55;;;2.90;63.80;;;;;;5012972;28;20125;-71
2022/01/20 09:05:27;;;;;;;79.97;39.60;;;3.00;63.80;;;;;;5019147;28;20076;-71
2022/01/20 09:07:53;;;;;;;90.97;46.72;;;3.00;63.30;;;;;;5035701;28;20068;-73
2022/01/20 09:10:21;;;;;;;56.47;28.45;;;3.00;63.60;;;;;;5020908;28;20039;-71
2022/01/20 09:15:54;;;;;;;40.40;23.05;;;2.80;64.80;;;;;;5025088;28;20049;-73
2022/01/20 09:18:22;;;;;;;48.90;22.30;;;2.80;64.90;;;;;;5041214;28;20026;-72
2022/01/20 09:20:49;;;;;;;47.78;22.83;;;2.80;64.90;;;;;;5028705;28;20658;-71
2022/01/20 09:23:15;;;;;;;54.42;26.92;;;2.90;65.00;;;;;;5013949;28;20116;-71
2022/01/20 09:25:42;;;;;;;51.83;26.48;;;3.10;64.70;;;;;;5027854;28;20446;-71
2022/01/20 09:28:09;;;;;;;47.20;25.40;;;3.20;64.20;;;;;;5022015;28;20403;-71
2022/01/20 09:30:38;;;;;;;47.47;24.48;;;3.30;64.10;;;;;;5041794;28;20040;-73
2022/01/20 09:33:17;;;;;;;58.05;25.52;;;3.40;63.40;;;;;;5028529;28;20465;-71
2022/01/20 09:35:45;;;;;;;71.55;28.60;;;3.30;63.50;;;;;;5010135;28;20041;-73
2022/01/20 09:38:12;;;;;;;48.38;24.50;;;3.30;64.20;;;;;;5043290;28;20034;-73
2022/01/20 09:40:40;;;;;;;48.30;22.85;;;3.30;64.60;;;;;;5010304;28;20145;-73
2022/01/20 09:43:10;;;;;;;47.65;23.83;;;3.20;64.90;;;;;;5009328;28;20034;-71
2022/01/20 09:45:37;;;;;;;50.50;24.70;;;3.30;65.00;;;;;;5009764;28;20042;-74
2022/01/20 09:48:04;;;;;;;53.88;26.45;;;3.30;64.40;;;;;;5027577;28;20041;-73
2022/01/20 09:50:30;;;;;;;45.92;22.58;;;3.40;64.90;;;;;;5011061;28;20506;-74
2022/01/20 09:52:59;;;;;;;43.40;22.25;;;3.40;65.00;;;;;;5010603;28;20514;-72
2022/01/20 09:55:27;;;;;;;40.85;21.42;;;3.30;64.70;;;;;;5010381;28;20448;-72
2022/01/20 09:57:53;;;;;;;39.03;21.70;;;3.30;65.40;;;;;;5025471;28;20045;-71
2022/01/20 10:00:21;;;;;;;39.70;21.95;;;3.30;66.00;;;;;;5009645;28;20038;-72
2022/01/20 10:03:29;;;;;;;66.70;32.10;;;3.30;65.90;;;;;;5028219;28;20014;-73
2022/01/20 10:05:56;;;;;;;84.68;38.65;;;3.40;65.80;;;;;;5016849;28;20046;-71
2022/01/20 10:08:26;;;;;;;71.88;34.45;;;3.40;65.60;;;;;;5042601;28;20037;-74
2022/01/20 10:11:11;;;;;;;55.70;27.35;;;3.40;65.50;;;;;;5021831;28;20038;-72
2022/01/20 10:13:40;;;;;;;68.05;32.05;;;3.50;65.70;;;;;;5011443;28;20053;-72
2022/01/20 10:16:25;;;;;;;62.35;33.17;;;3.60;65.30;;;;;;5026781;28;20111;-72
2022/01/20 10:19:41;;;;;;;57.50;29.88;;;3.60;65.60;;;;;;5010135;28;20056;-72
2022/01/20 10:22:25;;;;;;;57.25;28.35;;;3.60;65.30;;;;;;5010722;28;20044;-72
2022/01/20 10:25:12;;;;;;;60.58;30.77;;;3.60;65.40;;;;;;5012236;28;20441;-73
2022/01/20 10:28:10;;;;;;;53.80;28.80;;;3.70;65.30;;;;;;5026418;28;20069;-72
2022/01/20 10:30:36;;;;;;;53.50;29.80;;;3.70;65.40;;;;;;5018352;28;20483;-73
2022/01/20 10:33:02;;;;;;;;;;;3.80;65.30;;;;;;4994837;28;20034;-72
2022/01/20 10:35:33;;;;;;;180.05;67.72;;;3.80;64.80;;;;;;5018236;28;19925;-72
2022/01/20 10:38:20;;;;;;;184.50;73.68;;;4.00;64.70;;;;;;5019054;28;20042;-74
2022/01/20 10:41:05;;;;;;;96.17;45.87;;;4.10;65.00;;;;;;5011330;28;20045;-72
2022/01/20 10:43:34;;;;;;;81.60;42.17;;;4.20;65.00;;;;;;4993537;28;20480;-74
2022/01/20 10:46:19;;;;;;;89.32;43.55;;;4.20;64.80;;;;;;5025866;28;20490;-72
2022/01/20 10:49:16;;;;;;;100.30;49.70;;;4.40;65.10;;;;;;5010699;28;20037;-72
2022/01/20 10:51:43;;;;;;;121.75;59.65;;;4.50;64.80;;;;;;5010286;28;20493;-72
2022/01/20 10:54:49;;;;;;;136.20;64.20;;;4.60;64.60;;;;;;5012063;28;20092;-73
2022/01/20 10:57:16;;;;;;;131.75;61.63;;;4.80;64.70;;;;;;5027431;28;20045;-72
2022/01/20 11:00:06;;;;;;;109.97;53.40;;;4.90;64.00;;;;;;5009616;28;20034;-72
2022/01/20 11:02:33;;;;;;;201.80;80.20;;;5.00;64.60;;;;;;5020083;28;20041;-72
2022/01/20 11:04:59;;;;;;;146.63;63.13;;;5.20;64.30;;;;;;5015551;28;20034;-72
2022/01/20 11:07:28;;;;;;;118.50;59.20;;;5.30;64.20;;;;;;5026402;28;20037;-73
2022/01/20 11:10:05;;;;;;;111.95;58.35;;;5.40;64.30;;;;;;5037145;28;20041;-73
2022/01/20 11:12:34;;;;;;;131.43;65.32;;;5.50;64.70;;;;;;5013469;28;20470;-72
2022/01/20 11:15:04;;;;;;;109.63;60.88;;;5.60;64.30;;;;;;5010188;28;20030;-73
2022/01/20 11:17:31;;;;;;;86.80;48.80;;;5.70;64.40;;;;;;5026116;28;20072;-73
2022/01/20 11:20:55;;;;;;;95.78;51.00;;;5.70;64.50;;;;;;5024698;28;20049;-72
2022/01/20 11:23:21;;;;;;;98.15;54.10;;;5.70;64.80;;;;;;5015768;28;20132;-74
2022/01/20 11:25:48;;;;;;;83.25;51.67;;;5.80;64.80;;;;;;5029318;28;20170;-72
2022/01/20 11:28:33;;;;;;;94.15;53.72;;;5.80;64.80;;;;;;5029305;28;20033;-73
2022/01/20 11:31:28;;;;;;;101.50;53.20;;;5.80;65.10;;;;;;5029376;28;20054;-73
2022/01/20 11:33:54;;;;;;;76.65;44.25;;;5.80;65.00;;;;;;5013300;28;20553;-72
2022/01/20 11:36:39;;;;;;;75.53;45.15;;;5.80;65.20;;;;;;5030446;28;20036;-72
2022/01/20 11:39:06;;;;;;;49.50;29.02;;;5.80;65.50;;;;;;5018755;28;20034;-74
2022/01/20 11:41:52;;;;;;;64.65;37.92;;;5.80;66.50;;;;;;5012837;28;20049;-72
2022/01/20 11:44:27;;;;;;;76.68;41.38;;;5.80;65.90;;;;;;5028840;28;20096;-72
2022/01/20 11:47:22;;;;;;;61.22;30.50;;;5.80;65.60;;;;;;5028968;28;20133;-72
2022/01/20 11:49:48;;;;;;;62.38;36.00;;;5.70;66.00;;;;;;5011482;28;20531;-74
2022/01/20 11:52:33;;;;;;;45.70;24.92;;;5.70;66.00;;;;;;5029985;28;20514;-73
2022/01/20 11:55:12;;;;;;;46.15;23.58;;;5.70;66.50;;;;;;5019398;28;20112;-73
2022/01/20 11:57:38;;;;;;;47.03;23.75;;;5.60;66.90;;;;;;5032501;28;20512;-74
2022/01/20 12:00:37;;;;;;;46.17;24.80;;;5.60;67.00;;;;;;5027758;28;20030;-72
2022/01/20 12:03:21;;;;;;;64.82;32.38;;;5.60;67.40;;;;;;5021965;28;20124;-74
2022/01/20 12:06:22;;;;;;;88.43;39.50;;;5.60;67.50;;;;;;5024140;28;20099;-72
2022/01/20 12:09:07;;;;;;;77.93;38.45;;;5.50;67.40;;;;;;5028914;28;20471;-72
2022/01/20 12:11:52;;;;;;;54.90;29.52;;;5.50;67.60;;;;;;5011980;28;20084;-74
2022/01/20 12:14:35;;;;;;;39.85;23.15;;;5.40;67.70;;;;;;5027161;28;20461;-74
2022/01/20 12:17:05;;;;;;;44.60;21.48;;;5.40;67.50;;;;;;5012428;28;20045;-73
2022/01/20 12:19:31;;;;;;;44.28;22.63;;;5.40;67.40;;;;;;4999182;28;20569;-74
2022/01/20 12:21:58;;;;;;;54.97;27.05;;;5.40;67.40;;;;;;5026995;28;20038;-72
2022/01/20 12:24:23;;;;;;;;;;;5.30;66.80;;;;;;5027466;28;20033;-72
2022/01/20 12:26:49;;;;;;;49.65;25.05;;;5.30;67.30;;;;;;5028665;28;20313;-73
2022/01/20 12:29:16;;;;;;;40.55;21.77;;;5.30;67.20;;;;;;5025168;28;20041;-73
2022/01/20 12:32:00;;;;;;;39.38;20.73;;;5.30;67.20;;;;;;5011516;28;20030;-72
2022/01/20 12:34:27;;;;;;;35.17;17.33;;;5.30;67.30;;;;;;5012937;28;20383;-72
2022/01/20 12:37:15;;;;;;;46.03;24.95;;;5.30;67.30;;;;;;5018891;28;20034;-72
2022/01/20 12:39:41;;;;;;;63.78;33.08;;;5.20;67.20;;;;;;5020285;28;20045;-73
2022/01/20 12:42:10;;;;;;;56.35;28.25;;;5.20;67.50;;;;;;5022019;28;20053;-72
2022/01/20 12:45:55;;;;;;;67.72;32.35;;;5.20;67.20;;;;;;5019707;28;20446;-73
2022/01/20 12:47:51;;;;;;;59.15;30.67;;;5.20;67.50;;;;;;5020458;28;20049;-72
2022/01/20 12:50:18;;;;;;;89.75;37.53;;;5.10;67.30;;;;;;5028570;28;20049;-73
2022/01/20 12:53:03;;;;;;;45.55;24.17;;;5.10;67.40;;;;;;5045661;28;20068;-74
2022/01/20 12:55:29;;;;;;;63.03;30.40;;;5.10;68.00;;;;;;5011589;28;20045;-73
2022/01/20 12:58:14;;;;;;;46.60;24.33;;;5.00;68.20;;;;;;5011508;28;20038;-72
2022/01/20 13:00:40;;;;;;;52.20;25.73;;;4.90;68.90;;;;;;5013930;28;20181;-72
2022/01/20 13:03:07;;;;;;;61.42;32.28;;;4.90;68.60;;;;;;5012007;28;20034;-73
2022/01/20 13:05:40;;;;;;;88.10;46.38;;;4.90;68.60;;;;;;5028758;28;20045;-73
2022/01/20 13:08:06;;;;;;;94.85;47.70;;;4.90;68.60;;;;;;5025048;28;20475;-72
2022/01/20 13:10:34;;;;;;;75.78;42.25;;;4.90;68.60;;;;;;5014182;28;20064;-72
2022/01/20 13:13:05;;;;;;;60.67;34.55;;;4.90;68.80;;;;;;5026006;28;20049;-73
2022/01/20 13:15:32;;;;;;;41.22;24.48;;;4.90;68.60;;;;;;5027296;28;20064;-73
2022/01/20 13:18:17;;;;;;;66.32;26.40;;;5.00;68.50;;;;;;5011615;28;20030;-73
2022/01/20 13:21:12;;;;;;;60.15;29.98;;;5.00;68.60;;;;;;5012767;28;20100;-73
2022/01/20 13:23:57;;;;;;;53.20;27.88;;;5.00;68.50;;;;;;5022164;28;20037;-74
2022/01/20 13:26:25;;;;;;;45.75;27.38;;;5.00;68.60;;;;;;5015661;28;20038;-73
2022/01/20 13:29:10;;;;;;;45.85;25.50;;;5.00;68.30;;;;;;5027182;28;20038;-72
2022/01/20 13:31:36;;;;;;;61.65;31.05;;;4.90;68.60;;;;;;5011012;28;20038;-73
2022/01/20 13:34:22;;;;;;;92.55;43.10;;;5.00;69.40;;;;;;5012207;28;20038;-73
2022/01/20 13:37:13;;;;;;;139.07;58.95;;;5.00;68.50;;;;;;5010302;28;20124;-74
2022/01/20 13:39:42;;;;;;;98.05;45.92;;;5.00;68.60;;;;;;5010995;28;20491;-74
2022/01/20 13:45:51;;;;;;;90.47;41.15;;;5.00;68.90;;;;;;5017074;28;20042;-74
2022/01/20 13:48:27;;;;;;;91.43;39.70;;;5.00;68.60;;;;;;5013264;28;20026;-72
2022/01/20 13:51:15;;;;;;;99.03;45.65;;;5.00;68.50;;;;;;5012036;28;20757;-72
2022/01/20 13:53:41;;;;;;;115.38;48.78;;;5.00;68.50;;;;;;5009950;28;20415;-74
2022/01/20 13:56:10;;;;;;;;;;;5.00;68.60;;;;;;5028580;28;20041;-72
2022/01/20 13:58:38;;;;;;;85.72;41.13;;;5.00;68.30;;;;;;5026532;28;19921;-73
2022/01/20 14:01:09;;;;;;;106.65;42.08;;;5.00;68.30;;;;;;5028357;28;20037;-72
2022/01/20 14:03:38;;;;;;;85.50;40.78;;;5.00;68.40;;;;;;5009495;28;20042;-74
2022/01/20 14:06:06;;;;;;;79.88;39.00;;;5.00;68.50;;;;;;5027264;28;20121;-72
2022/01/20 14:08:36;;;;;;;86.00;42.55;;;5.00;68.60;;;;;;5011975;28;20045;-74
2022/01/20 14:11:03;;;;;;;103.28;46.50;;;5.00;68.00;;;;;;5042952;28;20048;-72
2022/01/20 14:13:30;;;;;;;109.20;48.65;;;5.00;68.50;;;;;;5009431;28;20034;-73
2022/01/20 14:15:57;;;;;;;145.80;55.05;;;5.00;68.80;;;;;;5010310;28;20041;-72